sensor_id;sensor_type;location;lat;lon;timestamp;pressure;altitude;pressure_sealevel;temperature
4421;BMP180;11824;51.178;13.546;2023-04-03T00:01:52;101310.00;;;3.20
4421;BMP180;11824;51.178;13.546;2023-04-03T00:04:19;101317.00;;;3.20
4421;BMP180;11824;51.178;13.546;2023-04-03T00:06:47;101316.00;;;3.20
4421;BMP180;11824;51.178;13.546;2023-04-03T00:09:14;101328.00;;;3.20
4421;BMP180;11824;51.178;13.546;2023-04-03T00:11:42;101338.00;;;3.10
4421;BMP180;11824;51.178;13.546;2023-04-03T00:14:09;101325.00;;;3.10
4421;BMP180;11824;51.178;13.546;2023-04-03T00:16:36;101319.00;;;3.10
4421;BMP180;11824;51.178;13.546;2023-04-03T00:19:04;101322.00;;;3.10
4421;BMP180;11824;51.178;13.546;2023-04-03T00:21:32;101328.00;;;3.10
4421;BMP180;11824;51.178;13.546;2023-04-03T00:23:59;101342.00;;;3.10
4421;BMP180;11824;51.178;13.546;2023-04-03T00:26:27;101334.00;;;3.10
4421;BMP180;11824;51.178;13.546;2023-04-03T00:28:54;101325.00;;;3.00
4421;BMP180;11824;51.178;13.546;2023-04-03T00:31:21;101335.00;;;3.00
4421;BMP180;11824;51.178;13.546;2023-04-03T00:33:49;101326.00;;;3.00
4421;BMP180;11824;51.178;13.546;2023-04-03T00:36:17;101330.00;;;2.90
4421;BMP180;11824;51.178;13.546;2023-04-03T00:38:44;101325.00;;;2.90
4421;BMP180;11824;51.178;13.546;2023-04-03T00:41:12;101335.00;;;2.90
4421;BMP180;11824;51.178;13.546;2023-04-03T00:43:39;101335.00;;;2.80
4421;BMP180;11824;51.178;13.546;2023-04-03T00:46:07;101347.00;;;2.80
4421;BMP180;11824;51.178;13.546;2023-04-03T00:48:37;101329.00;;;2.80
4421;BMP180;11824;51.178;13.546;2023-04-03T00:51:07;101357.00;;;2.70
4421;BMP180;11824;51.178;13.546;2023-04-03T00:53:40;101332.00;;;2.70
4421;BMP180;11824;51.178;13.546;2023-04-03T00:56:10;101333.00;;;2.60
4421;BMP180;11824;51.178;13.546;2023-04-03T00:58:41;101336.00;;;2.60
4421;BMP180;11824;51.178;13.546;2023-04-03T01:01:16;101329.00;;;2.60
4421;BMP180;11824;51.178;13.546;2023-04-03T01:03:44;101343.00;;;2.50
4421;BMP180;11824;51.178;13.546;2023-04-03T01:06:13;101345.00;;;2.50
4421;BMP180;11824;51.178;13.546;2023-04-03T01:08:42;101345.00;;;2.40
4421;BMP180;11824;51.178;13.546;2023-04-03T01:11:09;101348.00;;;2.40
4421;BMP180;11824;51.178;13.546;2023-04-03T01:13:37;101350.00;;;2.30
4421;BMP180;11824;51.178;13.546;2023-04-03T01:16:05;101356.00;;;2.30
4421;BMP180;11824;51.178;13.546;2023-04-03T01:18:34;101366.00;;;2.20
4421;BMP180;11824;51.178;13.546;2023-04-03T01:24:32;101365.00;;;2.10
4421;BMP180;11824;51.178;13.546;2023-04-03T01:27:02;101367.00;;;2.00
4421;BMP180;11824;51.178;13.546;2023-04-03T01:29:30;101364.00;;;2.00
4421;BMP180;11824;51.178;13.546;2023-04-03T01:32:00;101368.00;;;1.90
4421;BMP180;11824;51.178;13.546;2023-04-03T01:34:29;101378.00;;;1.90
4421;BMP180;11824;51.178;13.546;2023-04-03T01:36:56;101372.00;;;1.80
4421;BMP180;11824;51.178;13.546;2023-04-03T01:39:24;101371.00;;;1.80
4421;BMP180;11824;51.178;13.546;2023-04-03T01:41:51;101381.00;;;1.70
4421;BMP180;11824;51.178;13.546;2023-04-03T01:44:19;101380.00;;;1.70
4421;BMP180;11824;51.178;13.546;2023-04-03T01:46:47;101375.00;;;1.60
4421;BMP180;11824;51.178;13.546;2023-04-03T01:49:15;101385.00;;;1.60
4421;BMP180;11824;51.178;13.546;2023-04-03T01:51:42;101384.00;;;1.50
4421;BMP180;11824;51.178;13.546;2023-04-03T01:54:09;101393.00;;;1.50
4421;BMP180;11824;51.178;13.546;2023-04-03T01:56:37;101395.00;;;1.50
4421;BMP180;11824;51.178;13.546;2023-04-03T01:59:05;101395.00;;;1.50
4421;BMP180;11824;51.178;13.546;2023-04-03T02:01:33;101397.00;;;1.40
4421;BMP180;11824;51.178;13.546;2023-04-03T02:04:00;101404.00;;;1.40
4421;BMP180;11824;51.178;13.546;2023-04-03T02:06:28;101411.00;;;1.30
4421;BMP180;11824;51.178;13.546;2023-04-03T02:08:55;101410.00;;;1.30
4421;BMP180;11824;51.178;13.546;2023-04-03T02:11:23;101407.00;;;1.30
4421;BMP180;11824;51.178;13.546;2023-04-03T02:13:50;101399.00;;;1.20
4421;BMP180;11824;51.178;13.546;2023-04-03T02:16:18;101406.00;;;1.20
4421;BMP180;11824;51.178;13.546;2023-04-03T02:18:45;101409.00;;;1.20
4421;BMP180;11824;51.178;13.546;2023-04-03T02:21:12;101410.00;;;1.20
4421;BMP180;11824;51.178;13.546;2023-04-03T02:23:41;101415.00;;;1.20
4421;BMP180;11824;51.178;13.546;2023-04-03T02:26:09;101413.00;;;1.10
4421;BMP180;11824;51.178;13.546;2023-04-03T02:28:38;101407.00;;;1.10
4421;BMP180;11824;51.178;13.546;2023-04-03T02:31:06;101414.00;;;1.10
4421;BMP180;11824;51.178;13.546;2023-04-03T02:33:33;101412.00;;;1.10
4421;BMP180;11824;51.178;13.546;2023-04-03T02:36:03;101420.00;;;1.10
4421;BMP180;11824;51.178;13.546;2023-04-03T02:38:31;101427.00;;;1.10
4421;BMP180;11824;51.178;13.546;2023-04-03T02:41:01;101430.00;;;1.00
4421;BMP180;11824;51.178;13.546;2023-04-03T02:43:29;101418.00;;;1.00
4421;BMP180;11824;51.178;13.546;2023-04-03T02:45:56;101430.00;;;0.90
4421;BMP180;11824;51.178;13.546;2023-04-03T02:48:24;101423.00;;;0.90
4421;BMP180;11824;51.178;13.546;2023-04-03T02:50:52;101430.00;;;0.90
4421;BMP180;11824;51.178;13.546;2023-04-03T02:53:19;101428.00;;;0.80
4421;BMP180;11824;51.178;13.546;2023-04-03T02:55:47;101428.00;;;0.80
4421;BMP180;11824;51.178;13.546;2023-04-03T02:58:15;101437.00;;;0.70
4421;BMP180;11824;51.178;13.546;2023-04-03T03:00:43;101435.00;;;0.70
4421;BMP180;11824;51.178;13.546;2023-04-03T03:03:10;101431.00;;;0.60
4421;BMP180;11824;51.178;13.546;2023-04-03T03:05:38;101440.00;;;0.50
4421;BMP180;11824;51.178;13.546;2023-04-03T03:08:05;101434.00;;;0.50
4421;BMP180;11824;51.178;13.546;2023-04-03T03:10:32;101435.00;;;0.40
4421;BMP180;11824;51.178;13.546;2023-04-03T03:13:00;101432.00;;;0.40
4421;BMP180;11824;51.178;13.546;2023-04-03T03:15:28;101443.00;;;0.40
4421;BMP180;11824;51.178;13.546;2023-04-03T03:17:55;101439.00;;;0.30
4421;BMP180;11824;51.178;13.546;2023-04-03T03:20:23;101435.00;;;0.30
4421;BMP180;11824;51.178;13.546;2023-04-03T03:22:50;101444.00;;;0.20
4421;BMP180;11824;51.178;13.546;2023-04-03T03:25:17;101444.00;;;0.20
4421;BMP180;11824;51.178;13.546;2023-04-03T03:27:45;101443.00;;;0.10
4421;BMP180;11824;51.178;13.546;2023-04-03T03:30:13;101455.00;;;0.10
4421;BMP180;11824;51.178;13.546;2023-04-03T03:32:41;101443.00;;;0.00
4421;BMP180;11824;51.178;13.546;2023-04-03T03:35:08;101451.00;;;0.00
4421;BMP180;11824;51.178;13.546;2023-04-03T03:37:36;101445.00;;;0.00
4421;BMP180;11824;51.178;13.546;2023-04-03T03:40:04;101458.00;;;-0.10
4421;BMP180;11824;51.178;13.546;2023-04-03T03:42:31;101450.00;;;-0.10
4421;BMP180;11824;51.178;13.546;2023-04-03T03:44:59;101457.00;;;-0.20
4421;BMP180;11824;51.178;13.546;2023-04-03T03:47:26;101449.00;;;-0.20
4421;BMP180;11824;51.178;13.546;2023-04-03T03:49:54;101458.00;;;-0.20
4421;BMP180;11824;51.178;13.546;2023-04-03T03:52:22;101454.00;;;-0.20
4421;BMP180;11824;51.178;13.546;2023-04-03T03:54:49;101454.00;;;-0.30
4421;BMP180;11824;51.178;13.546;2023-04-03T03:57:17;101464.00;;;-0.30
4421;BMP180;11824;51.178;13.546;2023-04-03T03:59:44;101465.00;;;-0.40
4421;BMP180;11824;51.178;13.546;2023-04-03T04:02:12;101469.00;;;-0.40
4421;BMP180;11824;51.178;13.546;2023-04-03T04:04:39;101470.00;;;-0.40
4421;BMP180;11824;51.178;13.546;2023-04-03T04:07:08;101464.00;;;-0.50
4421;BMP180;11824;51.178;13.546;2023-04-03T04:09:35;101464.00;;;-0.50
4421;BMP180;11824;51.178;13.546;2023-04-03T04:12:03;101467.00;;;-0.50
4421;BMP180;11824;51.178;13.546;2023-04-03T04:14:30;101480.00;;;-0.60
4421;BMP180;11824;51.178;13.546;2023-04-03T04:16:57;101485.00;;;-0.60
4421;BMP180;11824;51.178;13.546;2023-04-03T04:19:25;101478.00;;;-0.60
4421;BMP180;11824;51.178;13.546;2023-04-03T04:21:52;101471.00;;;-0.60
4421;BMP180;11824;51.178;13.546;2023-04-03T04:24:20;101469.00;;;-0.70
4421;BMP180;11824;51.178;13.546;2023-04-03T04:26:49;101481.00;;;-0.70
4421;BMP180;11824;51.178;13.546;2023-04-03T04:29:16;101484.00;;;-0.70
4421;BMP180;11824;51.178;13.546;2023-04-03T04:31:44;101480.00;;;-0.80
4421;BMP180;11824;51.178;13.546;2023-04-03T04:34:11;101483.00;;;-0.80
4421;BMP180;11824;51.178;13.546;2023-04-03T04:36:39;101473.00;;;-0.80
4421;BMP180;11824;51.178;13.546;2023-04-03T04:39:07;101483.00;;;-0.90
4421;BMP180;11824;51.178;13.546;2023-04-03T04:41:35;101490.00;;;-0.90
4421;BMP180;11824;51.178;13.546;2023-04-03T04:44:03;101493.00;;;-0.90
4421;BMP180;11824;51.178;13.546;2023-04-03T04:46:30;101491.00;;;-0.90
4421;BMP180;11824;51.178;13.546;2023-04-03T04:48:58;101494.00;;;-0.90
4421;BMP180;11824;51.178;13.546;2023-04-03T04:51:26;101498.00;;;-0.90
4421;BMP180;11824;51.178;13.546;2023-04-03T04:53:57;101505.00;;;-0.90
4421;BMP180;11824;51.178;13.546;2023-04-03T04:56:24;101505.00;;;-0.90
4421;BMP180;11824;51.178;13.546;2023-04-03T04:58:53;101502.00;;;-0.90
4421;BMP180;11824;51.178;13.546;2023-04-03T05:01:20;101508.00;;;-0.90
4421;BMP180;11824;51.178;13.546;2023-04-03T05:03:47;101505.00;;;-0.90
4421;BMP180;11824;51.178;13.546;2023-04-03T05:06:15;101505.00;;;-0.80
4421;BMP180;11824;51.178;13.546;2023-04-03T05:08:42;101503.00;;;-0.80
4421;BMP180;11824;51.178;13.546;2023-04-03T05:11:09;101507.00;;;-0.80
4421;BMP180;11824;51.178;13.546;2023-04-03T05:13:37;101511.00;;;-0.80
4421;BMP180;11824;51.178;13.546;2023-04-03T05:16:05;101508.00;;;-0.80
4421;BMP180;11824;51.178;13.546;2023-04-03T05:18:33;101513.00;;;-0.80
4421;BMP180;11824;51.178;13.546;2023-04-03T05:21:00;101504.00;;;-0.70
4421;BMP180;11824;51.178;13.546;2023-04-03T05:23:28;101511.00;;;-0.70
4421;BMP180;11824;51.178;13.546;2023-04-03T05:25:55;101516.00;;;-0.70
4421;BMP180;11824;51.178;13.546;2023-04-03T05:28:23;101513.00;;;-0.60
4421;BMP180;11824;51.178;13.546;2023-04-03T05:30:53;101523.00;;;-0.50
4421;BMP180;11824;51.178;13.546;2023-04-03T05:33:23;101521.00;;;-0.30
4421;BMP180;11824;51.178;13.546;2023-04-03T05:35:52;101522.00;;;0.10
4421;BMP180;11824;51.178;13.546;2023-04-03T05:38:19;101532.00;;;0.80
4421;BMP180;11824;51.178;13.546;2023-04-03T05:40:47;101531.00;;;1.50
4421;BMP180;11824;51.178;13.546;2023-04-03T05:43:14;101538.00;;;2.20
4421;BMP180;11824;51.178;13.546;2023-04-03T05:45:43;101542.00;;;2.90
4421;BMP180;11824;51.178;13.546;2023-04-03T05:48:13;101538.00;;;3.40
4421;BMP180;11824;51.178;13.546;2023-04-03T05:50:41;101548.00;;;3.90
4421;BMP180;11824;51.178;13.546;2023-04-03T05:53:15;101547.00;;;4.30
4421;BMP180;11824;51.178;13.546;2023-04-03T05:55:44;101551.00;;;4.50
4421;BMP180;11824;51.178;13.546;2023-04-03T05:58:12;101544.00;;;4.70
4421;BMP180;11824;51.178;13.546;2023-04-03T06:00:39;101546.00;;;4.80
4421;BMP180;11824;51.178;13.546;2023-04-03T06:03:07;101553.00;;;4.60
4421;BMP180;11824;51.178;13.546;2023-04-03T06:05:34;101549.00;;;4.40
4421;BMP180;11824;51.178;13.546;2023-04-03T06:08:04;101562.00;;;4.20
4421;BMP180;11824;51.178;13.546;2023-04-03T06:10:32;101561.00;;;4.00
4421;BMP180;11824;51.178;13.546;2023-04-03T06:12:59;101568.00;;;3.80
4421;BMP180;11824;51.178;13.546;2023-04-03T06:15:27;101573.00;;;3.70
4421;BMP180;11824;51.178;13.546;2023-04-03T06:17:55;101562.00;;;3.60
4421;BMP180;11824;51.178;13.546;2023-04-03T06:20:23;101571.00;;;3.50
4421;BMP180;11824;51.178;13.546;2023-04-03T06:22:50;101570.00;;;3.40
4421;BMP180;11824;51.178;13.546;2023-04-03T06:25:19;101565.00;;;3.30
4421;BMP180;11824;51.178;13.546;2023-04-03T06:27:46;101568.00;;;3.20
4421;BMP180;11824;51.178;13.546;2023-04-03T06:30:14;101568.00;;;3.10
4421;BMP180;11824;51.178;13.546;2023-04-03T06:32:42;101566.00;;;3.10
4421;BMP180;11824;51.178;13.546;2023-04-03T06:35:10;101568.00;;;3.10
4421;BMP180;11824;51.178;13.546;2023-04-03T06:37:39;101582.00;;;3.20
4421;BMP180;11824;51.178;13.546;2023-04-03T06:40:09;101573.00;;;3.10
4421;BMP180;11824;51.178;13.546;2023-04-03T06:42:39;101571.00;;;3.10
4421;BMP180;11824;51.178;13.546;2023-04-03T06:45:08;101590.00;;;3.00
4421;BMP180;11824;51.178;13.546;2023-04-03T06:47:38;101581.00;;;3.00
4421;BMP180;11824;51.178;13.546;2023-04-03T06:50:06;101575.00;;;3.00
4421;BMP180;11824;51.178;13.546;2023-04-03T06:52:33;101582.00;;;3.00
4421;BMP180;11824;51.178;13.546;2023-04-03T06:55:01;101587.00;;;3.00
4421;BMP180;11824;51.178;13.546;2023-04-03T06:57:29;101581.00;;;2.90
4421;BMP180;11824;51.178;13.546;2023-04-03T06:59:57;101567.00;;;2.90
4421;BMP180;11824;51.178;13.546;2023-04-03T07:02:24;101585.00;;;2.90
4421;BMP180;11824;51.178;13.546;2023-04-03T07:04:52;101590.00;;;2.90
4421;BMP180;11824;51.178;13.546;2023-04-03T07:07:20;101585.00;;;2.90
4421;BMP180;11824;51.178;13.546;2023-04-03T07:09:47;101586.00;;;2.90
4421;BMP180;11824;51.178;13.546;2023-04-03T07:12:15;101599.00;;;2.90
4421;BMP180;11824;51.178;13.546;2023-04-03T07:14:43;101592.00;;;3.00
4421;BMP180;11824;51.178;13.546;2023-04-03T07:17:11;101601.00;;;3.00
4421;BMP180;11824;51.178;13.546;2023-04-03T07:19:39;101598.00;;;3.00
4421;BMP180;11824;51.178;13.546;2023-04-03T07:22:07;101600.00;;;3.10
4421;BMP180;11824;51.178;13.546;2023-04-03T07:24:34;101599.00;;;3.10
4421;BMP180;11824;51.178;13.546;2023-04-03T07:27:02;101609.00;;;3.10
4421;BMP180;11824;51.178;13.546;2023-04-03T07:29:30;101604.00;;;3.10
4421;BMP180;11824;51.178;13.546;2023-04-03T07:31:57;101607.00;;;3.10
4421;BMP180;11824;51.178;13.546;2023-04-03T07:34:25;101609.00;;;3.10
4421;BMP180;11824;51.178;13.546;2023-04-03T07:36:53;101606.00;;;3.10
4421;BMP180;11824;51.178;13.546;2023-04-03T07:39:21;101587.00;;;3.10
4421;BMP180;11824;51.178;13.546;2023-04-03T07:41:48;101609.00;;;3.10
4421;BMP180;11824;51.178;13.546;2023-04-03T07:44:16;101617.00;;;3.20
4421;BMP180;11824;51.178;13.546;2023-04-03T07:46:43;101612.00;;;3.30
4421;BMP180;11824;51.178;13.546;2023-04-03T07:49:11;101625.00;;;3.40
4421;BMP180;11824;51.178;13.546;2023-04-03T07:51:39;101616.00;;;3.50
4421;BMP180;11824;51.178;13.546;2023-04-03T07:54:06;101625.00;;;3.50
4421;BMP180;11824;51.178;13.546;2023-04-03T07:56:33;101621.00;;;3.60
4421;BMP180;11824;51.178;13.546;2023-04-03T07:59:01;101618.00;;;3.70
4421;BMP180;11824;51.178;13.546;2023-04-03T08:01:28;101614.00;;;3.80
4421;BMP180;11824;51.178;13.546;2023-04-03T08:03:59;101620.00;;;3.90
4421;BMP180;11824;51.178;13.546;2023-04-03T08:06:27;101622.00;;;4.00
4421;BMP180;11824;51.178;13.546;2023-04-03T08:09:14;101616.00;;;4.00
4421;BMP180;11824;51.178;13.546;2023-04-03T08:11:41;101625.00;;;4.10
4421;BMP180;11824;51.178;13.546;2023-04-03T08:14:09;101609.00;;;4.20
4421;BMP180;11824;51.178;13.546;2023-04-03T08:16:42;101619.00;;;4.40
4421;BMP180;11824;51.178;13.546;2023-04-03T08:19:10;101614.00;;;4.40
4421;BMP180;11824;51.178;13.546;2023-04-03T08:21:51;101620.00;;;4.40
4421;BMP180;11824;51.178;13.546;2023-04-03T08:24:19;101626.00;;;4.40
4421;BMP180;11824;51.178;13.546;2023-04-03T08:26:47;101613.00;;;4.50
4421;BMP180;11824;51.178;13.546;2023-04-03T08:29:14;101630.00;;;4.50
4421;BMP180;11824;51.178;13.546;2023-04-03T08:31:41;101627.00;;;4.50
4421;BMP180;11824;51.178;13.546;2023-04-03T08:34:09;101634.00;;;4.50
4421;BMP180;11824;51.178;13.546;2023-04-03T08:36:38;101628.00;;;4.60
4421;BMP180;11824;51.178;13.546;2023-04-03T08:39:05;101629.00;;;4.70
4421;BMP180;11824;51.178;13.546;2023-04-03T08:41:34;101628.00;;;4.70
4421;BMP180;11824;51.178;13.546;2023-04-03T08:44:15;101617.00;;;4.80
4421;BMP180;11824;51.178;13.546;2023-04-03T08:47:04;101624.00;;;4.90
4421;BMP180;11824;51.178;13.546;2023-04-03T08:49:37;101630.00;;;4.90
4421;BMP180;11824;51.178;13.546;2023-04-03T08:52:11;101622.00;;;5.00
4421;BMP180;11824;51.178;13.546;2023-04-03T08:54:50;101630.00;;;5.00
4421;BMP180;11824;51.178;13.546;2023-04-03T08:57:25;101635.00;;;5.10
4421;BMP180;11824;51.178;13.546;2023-04-03T08:59:54;101632.00;;;5.10
4421;BMP180;11824;51.178;13.546;2023-04-03T09:02:28;101643.00;;;5.20
4421;BMP180;11824;51.178;13.546;2023-04-03T09:04:59;101633.00;;;5.20
4421;BMP180;11824;51.178;13.546;2023-04-03T09:07:35;101642.00;;;5.20
4421;BMP180;11824;51.178;13.546;2023-04-03T09:10:04;101636.00;;;5.20
4421;BMP180;11824;51.178;13.546;2023-04-03T09:12:38;101639.00;;;5.20
4421;BMP180;11824;51.178;13.546;2023-04-03T09:15:15;101627.00;;;5.30
4421;BMP180;11824;51.178;13.546;2023-04-03T09:17:57;101637.00;;;5.30
4421;BMP180;11824;51.178;13.546;2023-04-03T09:20:30;101630.00;;;5.40
4421;BMP180;11824;51.178;13.546;2023-04-03T09:23:15;101631.00;;;5.50
4421;BMP180;11824;51.178;13.546;2023-04-03T09:25:44;101637.00;;;5.50
4421;BMP180;11824;51.178;13.546;2023-04-03T09:28:12;101630.00;;;5.50
4421;BMP180;11824;51.178;13.546;2023-04-03T09:30:40;101633.00;;;5.50
4421;BMP180;11824;51.178;13.546;2023-04-03T09:33:08;101632.00;;;5.60
4421;BMP180;11824;51.178;13.546;2023-04-03T09:35:37;101636.00;;;5.60
4421;BMP180;11824;51.178;13.546;2023-04-03T09:38:19;101641.00;;;5.70
4421;BMP180;11824;51.178;13.546;2023-04-03T09:40:49;101637.00;;;5.70
4421;BMP180;11824;51.178;13.546;2023-04-03T09:43:27;101635.00;;;5.70
4421;BMP180;11824;51.178;13.546;2023-04-03T09:45:56;101649.00;;;5.60
4421;BMP180;11824;51.178;13.546;2023-04-03T09:48:51;101641.00;;;5.60
4421;BMP180;11824;51.178;13.546;2023-04-03T09:51:35;101636.00;;;5.50
4421;BMP180;11824;51.178;13.546;2023-04-03T09:57:10;101628.00;;;5.60
4421;BMP180;11824;51.178;13.546;2023-04-03T09:59:44;101627.00;;;5.70
4421;BMP180;11824;51.178;13.546;2023-04-03T10:02:28;101619.00;;;5.70
4421;BMP180;11824;51.178;13.546;2023-04-03T10:04:58;101621.00;;;5.80
4421;BMP180;11824;51.178;13.546;2023-04-03T10:07:34;101614.00;;;5.80
4421;BMP180;11824;51.178;13.546;2023-04-03T10:10:17;101623.00;;;5.90
4421;BMP180;11824;51.178;13.546;2023-04-03T10:12:46;101631.00;;;5.90
4421;BMP180;11824;51.178;13.546;2023-04-03T10:15:16;101626.00;;;5.90
4421;BMP180;11824;51.178;13.546;2023-04-03T10:17:53;101626.00;;;5.90
4421;BMP180;11824;51.178;13.546;2023-04-03T10:20:30;101619.00;;;5.80
4421;BMP180;11824;51.178;13.546;2023-04-03T10:23:14;101603.00;;;5.80
4421;BMP180;11824;51.178;13.546;2023-04-03T10:25:49;101606.00;;;5.80
4421;BMP180;11824;51.178;13.546;2023-04-03T10:28:27;101599.00;;;5.80
4421;BMP180;11824;51.178;13.546;2023-04-03T10:31:03;101617.00;;;5.90
4421;BMP180;11824;51.178;13.546;2023-04-03T10:33:39;101607.00;;;6.00
4421;BMP180;11824;51.178;13.546;2023-04-03T10:36:20;101616.00;;;6.10
4421;BMP180;11824;51.178;13.546;2023-04-03T10:38:56;101624.00;;;6.10
4421;BMP180;11824;51.178;13.546;2023-04-03T10:41:29;101608.00;;;6.10
4421;BMP180;11824;51.178;13.546;2023-04-03T10:44:08;101614.00;;;6.10
4421;BMP180;11824;51.178;13.546;2023-04-03T10:46:43;101606.00;;;6.10
4421;BMP180;11824;51.178;13.546;2023-04-03T10:49:31;101613.00;;;6.10
4421;BMP180;11824;51.178;13.546;2023-04-03T10:52:06;101596.00;;;6.10
4421;BMP180;11824;51.178;13.546;2023-04-03T10:54:40;101596.00;;;6.10
4421;BMP180;11824;51.178;13.546;2023-04-03T10:57:09;101586.00;;;6.20
4421;BMP180;11824;51.178;13.546;2023-04-03T10:59:43;101596.00;;;6.30
4421;BMP180;11824;51.178;13.546;2023-04-03T11:02:19;101591.00;;;6.30
4421;BMP180;11824;51.178;13.546;2023-04-03T11:04:53;101589.00;;;6.40
4421;BMP180;11824;51.178;13.546;2023-04-03T11:07:23;101593.00;;;6.50
4421;BMP180;11824;51.178;13.546;2023-04-03T11:09:53;101597.00;;;6.50
4421;BMP180;11824;51.178;13.546;2023-04-03T11:12:26;101596.00;;;6.60
4421;BMP180;11824;51.178;13.546;2023-04-03T11:14:57;101580.00;;;6.70
4421;BMP180;11824;51.178;13.546;2023-04-03T11:17:33;101586.00;;;6.70
4421;BMP180;11824;51.178;13.546;2023-04-03T11:20:06;101584.00;;;6.70
4421;BMP180;11824;51.178;13.546;2023-04-03T11:22:38;101581.00;;;6.70
4421;BMP180;11824;51.178;13.546;2023-04-03T11:25:15;101577.00;;;6.70
4421;BMP180;11824;51.178;13.546;2023-04-03T11:27:50;101571.00;;;6.60
4421;BMP180;11824;51.178;13.546;2023-04-03T11:30:22;101570.00;;;6.70
4421;BMP180;11824;51.178;13.546;2023-04-03T11:33:02;101575.00;;;6.80
4421;BMP180;11824;51.178;13.546;2023-04-03T11:35:33;101568.00;;;6.90
4421;BMP180;11824;51.178;13.546;2023-04-03T11:38:04;101568.00;;;6.90
4421;BMP180;11824;51.178;13.546;2023-04-03T11:40:34;101580.00;;;7.10
4421;BMP180;11824;51.178;13.546;2023-04-03T11:43:07;101566.00;;;7.10
4421;BMP180;11824;51.178;13.546;2023-04-03T11:45:56;101564.00;;;7.20
4421;BMP180;11824;51.178;13.546;2023-04-03T11:48:50;101584.00;;;7.30
4421;BMP180;11824;51.178;13.546;2023-04-03T11:51:38;101567.00;;;7.30
4421;BMP180;11824;51.178;13.546;2023-04-03T11:57:43;101564.00;;;7.20
4421;BMP180;11824;51.178;13.546;2023-04-03T12:00:49;101567.00;;;7.20
4421;BMP180;11824;51.178;13.546;2023-04-03T12:06:53;101554.00;;;7.00
4421;BMP180;11824;51.178;13.546;2023-04-03T12:09:27;101556.00;;;7.00
4421;BMP180;11824;51.178;13.546;2023-04-03T12:11:59;101549.00;;;7.10
4421;BMP180;11824;51.178;13.546;2023-04-03T12:14:28;101559.00;;;7.20
4421;BMP180;11824;51.178;13.546;2023-04-03T12:16:56;101557.00;;;7.30
4421;BMP180;11824;51.178;13.546;2023-04-03T12:19:34;101561.00;;;7.40
4421;BMP180;11824;51.178;13.546;2023-04-03T12:22:11;101551.00;;;7.50
4421;BMP180;11824;51.178;13.546;2023-04-03T12:24:40;101560.00;;;7.60
4421;BMP180;11824;51.178;13.546;2023-04-03T12:27:23;101557.00;;;7.70
4421;BMP180;11824;51.178;13.546;2023-04-03T12:29:55;101545.00;;;7.70
4421;BMP180;11824;51.178;13.546;2023-04-03T12:35:43;101550.00;;;7.60
4421;BMP180;11824;51.178;13.546;2023-04-03T12:38:33;101554.00;;;7.50
4421;BMP180;11824;51.178;13.546;2023-04-03T12:41:27;101551.00;;;7.50
4421;BMP180;11824;51.178;13.546;2023-04-03T12:44:26;101559.00;;;7.40
4421;BMP180;11824;51.178;13.546;2023-04-03T12:47:00;101551.00;;;7.30
4421;BMP180;11824;51.178;13.546;2023-04-03T12:49:37;101548.00;;;7.30
4421;BMP180;11824;51.178;13.546;2023-04-03T12:52:13;101555.00;;;7.30
4421;BMP180;11824;51.178;13.546;2023-04-03T12:54:46;101541.00;;;7.20
4421;BMP180;11824;51.178;13.546;2023-04-03T12:57:18;101558.00;;;7.10
4421;BMP180;11824;51.178;13.546;2023-04-03T12:59:46;101553.00;;;7.00
4421;BMP180;11824;51.178;13.546;2023-04-03T13:02:32;101557.00;;;7.00
4421;BMP180;11824;51.178;13.546;2023-04-03T13:05:07;101552.00;;;6.90
4421;BMP180;11824;51.178;13.546;2023-04-03T13:07:37;101546.00;;;6.80
4421;BMP180;11824;51.178;13.546;2023-04-03T13:10:15;101551.00;;;6.70
4421;BMP180;11824;51.178;13.546;2023-04-03T13:12:50;101554.00;;;6.70
4421;BMP180;11824;51.178;13.546;2023-04-03T13:15:20;101546.00;;;6.70
4421;BMP180;11824;51.178;13.546;2023-04-03T13:17:49;101556.00;;;6.70
4421;BMP180;11824;51.178;13.546;2023-04-03T13:20:23;101550.00;;;6.70
4421;BMP180;11824;51.178;13.546;2023-04-03T13:22:58;101568.00;;;6.60
4421;BMP180;11824;51.178;13.546;2023-04-03T13:25:33;101559.00;;;6.40
4421;BMP180;11824;51.178;13.546;2023-04-03T13:28:04;101548.00;;;6.40
4421;BMP180;11824;51.178;13.546;2023-04-03T13:30:41;101564.00;;;6.40
4421;BMP180;11824;51.178;13.546;2023-04-03T13:33:26;101550.00;;;6.30
4421;BMP180;11824;51.178;13.546;2023-04-03T13:36:00;101557.00;;;6.40
4421;BMP180;11824;51.178;13.546;2023-04-03T13:38:34;101546.00;;;6.50
4421;BMP180;11824;51.178;13.546;2023-04-03T13:41:22;101568.00;;;6.50
4421;BMP180;11824;51.178;13.546;2023-04-03T13:43:50;101548.00;;;6.50
4421;BMP180;11824;51.178;13.546;2023-04-03T13:46:26;101547.00;;;6.50
4421;BMP180;11824;51.178;13.546;2023-04-03T13:48:56;101538.00;;;6.50
4421;BMP180;11824;51.178;13.546;2023-04-03T13:51:25;101544.00;;;6.50
4421;BMP180;11824;51.178;13.546;2023-04-03T13:53:57;101542.00;;;6.60
4421;BMP180;11824;51.178;13.546;2023-04-03T13:56:30;101542.00;;;6.60
4421;BMP180;11824;51.178;13.546;2023-04-03T13:59:03;101539.00;;;6.50
4421;BMP180;11824;51.178;13.546;2023-04-03T14:01:41;101536.00;;;6.50
4421;BMP180;11824;51.178;13.546;2023-04-03T14:04:15;101540.00;;;6.50
4421;BMP180;11824;51.178;13.546;2023-04-03T14:06:44;101543.00;;;6.50
4421;BMP180;11824;51.178;13.546;2023-04-03T14:09:12;101557.00;;;6.50
4421;BMP180;11824;51.178;13.546;2023-04-03T14:11:42;101528.00;;;6.50
4421;BMP180;11824;51.178;13.546;2023-04-03T14:14:16;101534.00;;;6.50
4421;BMP180;11824;51.178;13.546;2023-04-03T14:16:47;101528.00;;;6.50
4421;BMP180;11824;51.178;13.546;2023-04-03T14:19:20;101533.00;;;6.50
4421;BMP180;11824;51.178;13.546;2023-04-03T14:21:47;101535.00;;;6.50
4421;BMP180;11824;51.178;13.546;2023-04-03T14:24:15;101533.00;;;6.40
4421;BMP180;11824;51.178;13.546;2023-04-03T14:26:44;101535.00;;;6.40
4421;BMP180;11824;51.178;13.546;2023-04-03T14:29:12;101545.00;;;6.40
4421;BMP180;11824;51.178;13.546;2023-04-03T14:31:40;101532.00;;;6.50
4421;BMP180;11824;51.178;13.546;2023-04-03T14:34:09;101527.00;;;6.40
4421;BMP180;11824;51.178;13.546;2023-04-03T14:36:36;101528.00;;;6.40
4421;BMP180;11824;51.178;13.546;2023-04-03T14:39:05;101538.00;;;6.40
4421;BMP180;11824;51.178;13.546;2023-04-03T14:41:33;101543.00;;;6.40
4421;BMP180;11824;51.178;13.546;2023-04-03T14:44:01;101539.00;;;6.40